Time;durP1;ratioP1;P1;durP2;ratioP2;P2;SDS_P1;SDS_P2;PMS_P1;PMS_P2;Temp;Humidity;BMP_temperature;BMP_pressure;BME280_temperature;BME280_humidity;BME280_pressure;Samples;Min_cycle;Max_cycle;Signal;HPM_P1;HPM_P2
2024/02/06 00:00:44;;;;;;;20.27;12.48;;;3.80;99.90;;;;;;7366596;19;20479;-70
2024/02/06 00:03:14;;;;;;;19.73;12.55;;;3.80;99.90;;;;;;7365074;19;20018;-70
2024/02/06 00:05:47;;;;;;;17.05;12.75;;;3.90;99.90;;;;;;7366490;19;20029;-71
2024/02/06 00:08:17;;;;;;;20.27;11.55;;;3.90;99.90;;;;;;7367999;19;20075;-70
2024/02/06 00:10:47;;;;;;;20.58;13.20;;;4.00;99.90;;;;;;7368240;19;20098;-69
2024/02/06 00:13:18;;;;;;;21.80;11.77;;;4.00;99.90;;;;;;7362704;19;20487;-70
2024/02/06 00:15:48;;;;;;;20.60;11.60;;;4.10;99.90;;;;;;7366616;19;20485;-70
2024/02/06 00:18:18;;;;;;;19.20;12.00;;;4.10;99.90;;;;;;7368440;19;20087;-69
2024/02/06 00:20:51;;;;;;;20.75;13.13;;;4.20;99.90;;;;;;7367451;19;20007;-70
2024/02/06 00:23:21;;;;;;;18.60;10.70;;;4.20;99.90;;;;;;7363348;19;20007;-70
2024/02/06 00:25:53;;;;;;;17.27;11.80;;;4.20;99.90;;;;;;7364194;19;20480;-70
2024/02/06 00:28:23;;;;;;;17.60;10.93;;;4.30;99.90;;;;;;7364037;19;20014;-71
2024/02/06 00:30:53;;;;;;;16.45;10.32;;;4.30;99.90;;;;;;7366287;19;20019;-69
2024/02/06 00:33:24;;;;;;;16.13;10.60;;;4.40;98.00;;;;;;7363025;19;20716;-70
2024/02/06 00:35:56;;;;;;;17.27;9.70;;;4.40;90.10;;;;;;7366564;19;20431;-72
2024/02/06 00:38:26;;;;;;;19.38;10.40;;;4.40;76.60;;;;;;7367821;19;20015;-70
2024/02/06 00:40:57;;;;;;;18.48;9.98;;;4.60;54.90;;;;;;7366565;19;20010;-70
2024/02/06 00:43:27;;;;;;;16.67;9.85;;;4.50;49.00;;;;;;7361651;19;20379;-70
2024/02/06 00:45:57;;;;;;;20.17;10.75;;;4.60;46.40;;;;;;7365812;19;20037;-71
2024/02/06 00:48:27;;;;;;;16.20;9.57;;;4.60;43.40;;;;;;7370850;19;20014;-70
2024/02/06 00:51:00;;;;;;;16.52;9.88;;;4.70;37.40;;;;;;7374719;19;20031;-70
2024/02/06 00:53:31;;;;;;;16.30;9.63;;;4.70;30.40;;;;;;7366543;19;20082;-70
2024/02/06 00:56:01;;;;;;;16.58;9.23;;;4.70;25.60;;;;;;7372815;19;20002;-70
2024/02/06 00:58:31;;;;;;;15.18;9.02;;;4.80;22.10;;;;;;7371870;19;20011;-71
2024/02/06 01:01:02;;;;;;;15.13;9.27;;;4.80;18.80;;;;;;7373055;19;20056;-70
2024/02/06 01:03:32;;;;;;;13.68;9.32;;;4.90;12.90;;;;;;7368154;19;20014;-70
2024/02/06 01:06:04;;;;;;;18.67;8.43;;;4.80;10.20;;;;;;7372666;19;20066;-69
2024/02/06 01:08:34;;;;;;;14.70;8.68;;;4.90;5.40;;;;;;7373176;19;20018;-69
2024/02/06 01:11:04;;;;;;;15.77;9.07;;;4.90;2.40;;;;;;7371153;19;20014;-70
2024/02/06 01:13:35;;;;;;;16.92;8.30;;;4.90;1.20;;;;;;7367376;19;20402;-70
2024/02/06 01:16:07;;;;;;;13.48;8.63;;;4.90;1.60;;;;;;7371035;19;20014;-71
2024/02/06 01:18:37;;;;;;;13.48;8.75;;;4.90;1.00;;;;;;7371595;19;20025;-71
2024/02/06 01:21:10;;;;;;;16.35;9.30;;;4.90;1.00;;;;;;7373269;19;20026;-70
2024/02/06 01:23:40;;;;;;;16.55;8.70;;;4.90;1.00;;;;;;7369086;19;20122;-71
2024/02/06 01:26:11;;;;;;;14.40;8.55;;;5.00;1.00;;;;;;7371314;19;20114;-70
2024/02/06 01:28:41;;;;;;;17.25;8.38;;;5.00;1.00;;;;;;7370878;19;20405;-68
2024/02/06 01:31:12;;;;;;;14.90;7.82;;;5.00;1.00;;;;;;7372075;19;20042;-68
2024/02/06 01:33:42;;;;;;;15.68;8.35;;;5.00;1.00;;;;;;7369948;19;20014;-69
2024/02/06 01:36:15;;;;;;;14.70;8.55;;;5.00;1.00;;;;;;7370717;19;20010;-68
2024/02/06 01:38:45;;;;;;;16.75;8.68;;;5.00;1.00;;;;;;7371249;19;20081;-69
2024/02/06 01:41:16;;;;;;;16.80;8.93;;;5.00;1.00;;;;;;7372502;19;20014;-70
2024/02/06 01:43:46;;;;;;;13.98;7.97;;;5.00;1.00;;;;;;7371463;19;20006;-69
2024/02/06 01:46:16;;;;;;;13.93;8.45;;;5.00;1.00;;;;;;7370632;19;20832;-69
2024/02/06 01:48:46;;;;;;;14.30;8.27;;;5.00;1.00;;;;;;7370403;19;20044;-70
2024/02/06 01:51:21;;;;;;;16.15;8.55;;;5.00;1.00;;;;;;7372585;19;20255;-70
2024/02/06 01:53:55;;;;;;;16.63;8.77;;;5.00;1.00;;;;;;7370135;19;20049;-70
2024/02/06 01:56:25;;;;;;;15.52;8.57;;;5.00;1.00;;;;;;7370927;19;20007;-69
2024/02/06 01:58:56;;;;;;;16.17;8.25;;;5.00;1.00;;;;;;7371003;19;20010;-69
2024/02/06 02:01:27;;;;;;;16.52;7.90;;;5.00;1.00;;;;;;7368904;19;20027;-69
2024/02/06 02:03:57;;;;;;;14.75;8.57;;;5.00;1.00;;;;;;7369509;19;20010;-69
2024/02/06 02:06:30;;;;;;;20.95;8.82;;;5.00;1.00;;;;;;7369716;19;20018;-70
2024/02/06 02:09:01;;;;;;;17.77;8.27;;;5.10;1.00;;;;;;7371671;19;20018;-70
2024/02/06 02:11:34;;;;;;;19.33;8.65;;;5.10;1.00;;;;;;7366041;19;20241;-70
2024/02/06 02:14:04;;;;;;;17.35;8.80;;;5.10;1.00;;;;;;7368169;19;20367;-70
2024/02/06 02:16:34;;;;;;;13.82;8.52;;;5.10;1.00;;;;;;7369641;19;20014;-70
2024/02/06 02:19:04;;;;;;;15.50;8.63;;;5.10;1.00;;;;;;7370336;19;20010;-70
2024/02/06 02:21:38;;;;;;;14.93;8.73;;;5.00;1.00;;;;;;7370223;19;20017;-71
2024/02/06 02:24:10;;;;;;;15.13;8.55;;;5.10;1.00;;;;;;7367920;19;20098;-69
2024/02/06 02:26:41;;;;;;;15.93;8.60;;;5.00;1.00;;;;;;7369218;19;20010;-69
2024/02/06 02:29:14;;;;;;;16.45;8.55;;;5.10;1.00;;;;;;7369506;19;20010;-70
2024/02/06 02:31:46;;;;;;;17.10;8.70;;;5.00;1.00;;;;;;7369030;19;20002;-69
2024/02/06 02:34:17;;;;;;;16.33;8.90;;;5.00;1.00;;;;;;7368849;19;20010;-70
2024/02/06 02:36:50;;;;;;;13.77;7.95;;;5.00;1.00;;;;;;7369612;19;20010;-70
2024/02/06 02:39:20;;;;;;;19.10;8.63;;;5.00;1.00;;;;;;7371055;19;20018;-70
2024/02/06 02:41:50;;;;;;;15.50;8.70;;;5.00;1.00;;;;;;7370233;19;20358;-69
2024/02/06 02:44:20;;;;;;;16.35;8.82;;;5.00;1.00;;;;;;7369636;19;20013;-70
2024/02/06 02:46:50;;;;;;;15.70;8.30;;;5.00;1.00;;;;;;7369839;19;20014;-69
2024/02/06 02:49:20;;;;;;;13.88;8.88;;;5.00;1.00;;;;;;7371083;19;20022;-69
2024/02/06 02:51:53;;;;;;;14.75;8.48;;;5.00;1.00;;;;;;7369443;19;20015;-70
2024/02/06 02:54:27;;;;;;;15.95;8.90;;;4.90;1.00;;;;;;7367361;19;20018;-69
2024/02/06 02:56:57;;;;;;;15.95;9.15;;;4.90;1.00;;;;;;7369771;19;20023;-69
2024/02/06 02:59:28;;;;;;;19.25;8.75;;;4.90;1.00;;;;;;7369187;19;20112;-69
2024/02/06 03:01:58;;;;;;;21.20;9.38;;;4.90;1.00;;;;;;7367983;19;20026;-69
2024/02/06 03:04:28;;;;;;;13.70;8.27;;;4.90;1.00;;;;;;7368868;19;20041;-69
2024/02/06 03:07:00;;;;;;;19.10;9.38;;;4.90;1.00;;;;;;7369420;19;20027;-69
2024/02/06 03:09:30;;;;;;;16.05;8.35;;;4.90;1.00;;;;;;7368561;19;20022;-69
2024/02/06 03:12:00;;;;;;;16.73;9.38;;;4.90;1.00;;;;;;7365916;19;20021;-69
2024/02/06 03:14:30;;;;;;;17.85;8.38;;;4.90;1.00;;;;;;7367083;19;20014;-70
2024/02/06 03:17:00;;;;;;;16.13;9.00;;;4.90;1.00;;;;;;7368406;19;20010;-70
2024/02/06 03:19:30;;;;;;;13.00;8.48;;;4.80;1.00;;;;;;7368336;19;20014;-70
2024/02/06 03:22:05;;;;;;;13.75;9.13;;;4.80;1.00;;;;;;7366947;19;20105;-69
2024/02/06 03:24:35;;;;;;;16.55;9.23;;;4.80;1.00;;;;;;7366305;19;20011;-69
2024/02/06 03:27:06;;;;;;;18.90;9.82;;;4.80;1.00;;;;;;7370389;19;20011;-70
2024/02/06 03:29:36;;;;;;;16.15;9.52;;;4.80;1.00;;;;;;7368200;19;20055;-70
2024/02/06 03:32:08;;;;;;;15.45;8.45;;;4.90;1.00;;;;;;7362799;19;20025;-70
2024/02/06 03:34:38;;;;;;;18.25;9.55;;;4.80;1.00;;;;;;7365311;19;20019;-69
2024/02/06 03:37:12;;;;;;;16.33;9.60;;;4.80;1.00;;;;;;7368034;19;20026;-70
2024/02/06 03:39:42;;;;;;;15.40;9.00;;;4.80;1.00;;;;;;7369197;19;20086;-70
2024/02/06 03:42:12;;;;;;;17.45;9.25;;;4.80;1.00;;;;;;7366142;19;20014;-70
2024/02/06 03:44:42;;;;;;;16.60;8.90;;;4.90;1.00;;;;;;7368483;19;20018;-70
2024/02/06 03:47:12;;;;;;;18.30;9.25;;;4.90;1.00;;;;;;7367647;19;20017;-69
2024/02/06 03:49:42;;;;;;;15.45;8.88;;;4.90;1.00;;;;;;7367545;19;20035;-69
2024/02/06 03:52:15;;;;;;;18.33;8.98;;;4.90;1.00;;;;;;7364603;19;20014;-69
2024/02/06 03:54:45;;;;;;;18.10;8.65;;;4.90;1.00;;;;;;7366628;19;20312;-69
2024/02/06 03:57:16;;;;;;;15.13;8.88;;;4.90;1.00;;;;;;7367107;19;20027;-69
2024/02/06 03:59:50;;;;;;;13.73;9.18;;;5.00;1.00;;;;;;7367218;19;20011;-70
2024/02/06 04:02:21;;;;;;;18.02;8.82;;;5.00;1.00;;;;;;7361529;19;20011;-70
2024/02/06 04:04:52;;;;;;;14.63;9.02;;;5.10;1.00;;;;;;7367176;19;20090;-70
2024/02/06 04:07:25;;;;;;;18.08;8.68;;;5.10;1.00;;;;;;7366796;19;20387;-69
2024/02/06 04:09:55;;;;;;;12.80;7.93;;;5.10;1.00;;;;;;7367692;19;20007;-69
2024/02/06 04:12:25;;;;;;;15.68;8.57;;;5.10;1.00;;;;;;7364571;19;20030;-69
2024/02/06 04:14:56;;;;;;;13.55;7.85;;;5.10;1.00;;;;;;7365683;19;20693;-69
2024/02/06 04:17:26;;;;;;;12.75;7.25;;;5.10;1.00;;;;;;7366392;19;20011;-70
2024/02/06 04:19:56;;;;;;;14.50;8.00;;;5.10;1.00;;;;;;7367628;19;20847;-69
2024/02/06 04:22:30;;;;;;;11.63;7.60;;;5.10;1.00;;;;;;7363846;19;20021;-70
2024/02/06 04:25:00;;;;;;;20.73;9.07;;;5.10;1.00;;;;;;7367230;19;20467;-70
2024/02/06 04:27:30;;;;;;;14.18;8.13;;;5.10;1.00;;;;;;7366663;19;20023;-69
2024/02/06 04:30:00;;;;;;;16.92;8.70;;;5.10;1.00;;;;;;7369215;19;20503;-70
2024/02/06 04:32:30;;;;;;;16.13;8.40;;;5.10;1.00;;;;;;7362071;19;20577;-70
2024/02/06 04:35:01;;;;;;;14.20;8.38;;;5.10;1.00;;;;;;7366689;19;20078;-69
2024/02/06 04:37:33;;;;;;;14.30;8.77;;;5.10;1.00;;;;;;7365486;19;20037;-69
2024/02/06 04:40:06;;;;;;;14.13;8.55;;;5.10;1.00;;;;;;7366831;19;20018;-69
2024/02/06 04:42:36;;;;;;;17.58;9.20;;;5.20;1.00;;;;;;7363197;19;20018;-69
2024/02/06 04:45:07;;;;;;;15.70;8.73;;;5.20;1.00;;;;;;7366886;19;20011;-70
2024/02/06 04:47:37;;;;;;;12.50;7.10;;;5.20;1.00;;;;;;7368008;19;20448;-70
2024/02/06 04:50:09;;;;;;;13.20;7.97;;;5.10;1.00;;;;;;7367119;19;20018;-69
2024/02/06 04:52:41;;;;;;;12.98;7.93;;;5.20;1.00;;;;;;7365333;19;20015;-70
2024/02/06 04:55:12;;;;;;;11.75;6.85;;;5.20;1.00;;;;;;7363506;19;20125;-71
2024/02/06 04:57:42;;;;;;;10.35;6.55;;;5.30;1.00;;;;;;7368139;19;20007;-70
2024/02/06 05:00:13;;;;;;;11.02;6.30;;;5.30;1.00;;;;;;7364711;19;20021;-70
2024/02/06 05:02:44;;;;;;;12.70;7.55;;;5.40;1.00;;;;;;7362195;19;20010;-70
2024/02/06 05:05:14;;;;;;;12.50;6.68;;;5.40;1.00;;;;;;7365811;19;20010;-70
2024/02/06 05:07:46;;;;;;;13.05;7.28;;;5.40;1.00;;;;;;7365122;19;20354;-70
2024/02/06 05:10:17;;;;;;;13.50;7.07;;;5.40;1.00;;;;;;7365031;19;20026;-70
2024/02/06 05:12:47;;;;;;;14.13;7.18;;;5.40;1.00;;;;;;7361990;19;20010;-70
2024/02/06 05:15:17;;;;;;;13.25;6.97;;;5.40;1.00;;;;;;7364649;19;20011;-70
2024/02/06 05:17:47;;;;;;;10.48;6.53;;;5.40;1.00;;;;;;7364734;19;20018;-70
2024/02/06 05:20:18;;;;;;;12.65;6.47;;;5.40;1.00;;;;;;7364728;19;20014;-70
2024/02/06 05:22:51;;;;;;;11.38;5.97;;;5.40;1.00;;;;;;7361167;19;20032;-70
2024/02/06 05:25:21;;;;;;;10.10;6.72;;;5.40;1.00;;;;;;7363897;19;20083;-70
2024/02/06 05:27:53;;;;;;;10.27;6.05;;;5.50;1.00;;;;;;7363707;19;20017;-69
2024/02/06 05:30:23;;;;;;;9.85;5.75;;;5.50;1.00;;;;;;7365166;19;20530;-69
2024/02/06 05:32:54;;;;;;;10.60;6.78;;;5.50;1.00;;;;;;7357450;19;20047;-69
2024/02/06 05:35:24;;;;;;;9.82;6.32;;;5.40;1.00;;;;;;7369698;19;20014;-69
2024/02/06 05:37:58;;;;;;;9.02;6.00;;;5.50;1.00;;;;;;7367995;19;20011;-70
2024/02/06 05:40:29;;;;;;;8.63;5.63;;;5.50;1.00;;;;;;7370602;19;20547;-69
2024/02/06 05:42:59;;;;;;;8.55;5.88;;;5.40;1.00;;;;;;7365423;19;20531;-70
2024/02/06 05:45:29;;;;;;;10.68;5.90;;;5.50;1.00;;;;;;7371644;19;20057;-69
2024/02/06 05:48:00;;;;;;;7.97;5.18;;;5.50;1.00;;;;;;7371361;19;20022;-69
2024/02/06 05:50:30;;;;;;;8.77;5.28;;;5.50;1.00;;;;;;7372931;19;20010;-69
2024/02/06 05:53:03;;;;;;;9.48;5.30;;;5.50;1.00;;;;;;7368487;19;20485;-69
2024/02/06 05:55:33;;;;;;;7.88;4.95;;;5.50;1.00;;;;;;7370402;19;20086;-70
2024/02/06 05:58:03;;;;;;;8.40;5.28;;;5.50;1.00;;;;;;7372390;19;20021;-70
2024/02/06 06:00:34;;;;;;;8.45;5.47;;;5.50;1.00;;;;;;7373418;19;20015;-69
2024/02/06 06:03:04;;;;;;;7.95;5.15;;;5.60;1.00;;;;;;7368627;19;20010;-70
2024/02/06 06:05:35;;;;;;;7.03;5.00;;;5.60;1.00;;;;;;7371214;19;20010;-70
2024/02/06 06:08:08;;;;;;;10.25;5.05;;;5.60;1.00;;;;;;7370671;19;20473;-70
2024/02/06 06:10:38;;;;;;;9.98;4.95;;;5.50;1.00;;;;;;7371853;19;20010;-70
2024/02/06 06:13:08;;;;;;;9.50;5.55;;;5.60;1.00;;;;;;7366890;19;20040;-70
2024/02/06 06:15:39;;;;;;;12.88;5.65;;;5.60;1.00;;;;;;7371420;19;20044;-68
2024/02/06 06:18:10;;;;;;;10.52;5.15;;;5.70;1.00;;;;;;7370451;19;20650;-69
2024/02/06 06:20:42;;;;;;;9.35;4.75;;;5.70;1.00;;;;;;7371707;19;20067;-70
2024/02/06 06:23:14;;;;;;;9.05;4.70;;;5.70;1.00;;;;;;7366960;19;20030;-70
2024/02/06 06:25:44;;;;;;;7.28;3.97;;;5.80;1.00;;;;;;7370224;19;20192;-69
2024/02/06 06:28:14;;;;;;;11.18;5.75;;;5.80;1.00;;;;;;7369700;19;26825;-70
2024/02/06 06:30:44;;;;;;;8.05;4.57;;;5.80;1.00;;;;;;7369944;19;22014;-70
2024/02/06 06:33:15;;;;;;;10.07;4.13;;;5.90;1.00;;;;;;7368717;19;20034;-69
2024/02/06 06:35:45;;;;;;;9.23;4.65;;;5.90;1.00;;;;;;7370673;19;20027;-70
2024/02/06 06:38:17;;;;;;;8.77;4.22;;;5.90;1.00;;;;;;7369799;19;20400;-70
2024/02/06 06:40:48;;;;;;;9.43;4.97;;;6.00;1.00;;;;;;7368730;19;20523;-70
2024/02/06 06:43:18;;;;;;;9.10;4.78;;;6.00;1.00;;;;;;7367580;19;20030;-70
2024/02/06 06:45:49;;;;;;;8.23;4.10;;;6.00;1.00;;;;;;7365702;19;20026;-70
2024/02/06 06:48:19;;;;;;;6.32;4.30;;;6.00;1.00;;;;;;7369321;19;20007;-70
2024/02/06 06:50:49;;;;;;;8.70;4.80;;;6.00;1.00;;;;;;7369229;19;20086;-69
2024/02/06 06:53:21;;;;;;;7.50;4.38;;;6.00;1.00;;;;;;7365038;19;20013;-70
2024/02/06 06:55:51;;;;;;;8.00;4.57;;;6.00;1.00;;;;;;7369002;19;20085;-70
2024/02/06 06:58:21;;;;;;;6.38;3.95;;;6.00;1.00;;;;;;7368229;19;20455;-70
2024/02/06 07:00:53;;;;;;;11.15;5.05;;;6.00;1.00;;;;;;7368525;19;20014;-69
2024/02/06 07:03:23;;;;;;;8.25;4.97;;;6.00;1.00;;;;;;7365715;19;20007;-70
2024/02/06 07:05:53;;;;;;;8.05;4.95;;;6.00;1.00;;;;;;7367501;19;20048;-69
2024/02/06 07:08:26;;;;;;;7.35;5.35;;;6.00;1.00;;;;;;7368479;19;20010;-69
2024/02/06 07:10:56;;;;;;;9.90;4.95;;;5.90;1.00;;;;;;7367964;19;20433;-69
2024/02/06 07:13:27;;;;;;;10.10;6.25;;;5.90;1.00;;;;;;7362632;19;20029;-69
2024/02/06 07:15:57;;;;;;;11.70;5.60;;;5.80;1.00;;;;;;7367912;19;20010;-69
2024/02/06 07:18:27;;;;;;;8.80;5.22;;;5.80;1.00;;;;;;7367777;19;20027;-70
2024/02/06 07:20:57;;;;;;;10.07;5.63;;;5.90;1.00;;;;;;7365995;19;20051;-70
2024/02/06 07:23:30;;;;;;;11.65;6.00;;;5.90;1.00;;;;;;7366293;19;20002;-69
2024/02/06 07:26:00;;;;;;;8.40;5.63;;;5.90;1.00;;;;;;7365952;19;20006;-70
2024/02/06 07:28:35;;;;;;;10.30;5.70;;;5.90;1.00;;;;;;7367492;19;20011;-70
2024/02/06 07:31:05;;;;;;;11.38;6.40;;;5.80;1.00;;;;;;7367651;19;20586;-69
2024/02/06 07:33:35;;;;;;;10.52;5.30;;;5.90;1.00;;;;;;7364614;19;20031;-70
2024/02/06 07:36:05;;;;;;;7.72;5.55;;;5.80;1.00;;;;;;7366373;19;20045;-70
2024/02/06 07:38:38;;;;;;;11.30;5.68;;;5.90;1.00;;;;;;7366553;19;20014;-70
2024/02/06 07:41:08;;;;;;;14.63;6.05;;;5.90;1.00;;;;;;7366331;19;20014;-69
2024/02/06 07:43:38;;;;;;;11.35;5.82;;;5.80;1.00;;;;;;7363236;19;20010;-70
2024/02/06 07:46:08;;;;;;;8.38;6.20;;;5.90;1.00;;;;;;7366380;19;20010;-69
2024/02/06 07:48:38;;;;;;;10.10;6.03;;;5.90;1.00;;;;;;7367611;19;20011;-69
2024/02/06 07:51:08;;;;;;;8.88;5.28;;;5.80;1.00;;;;;;7366684;19;20527;-70
2024/02/06 07:53:41;;;;;;;8.65;5.30;;;5.90;1.00;;;;;;7364430;19;20015;-70
2024/02/06 07:56:11;;;;;;;8.18;4.88;;;6.00;1.00;;;;;;7377594;19;20781;-70
2024/02/06 07:58:41;;;;;;;9.95;5.38;;;5.90;1.00;;;;;;7366468;19;20010;-68
2024/02/06 08:01:12;;;;;;;8.40;5.63;;;6.00;1.00;;;;;;7367726;19;20367;-68
2024/02/06 08:03:42;;;;;;;10.80;6.03;;;5.90;1.00;;;;;;7364429;19;20018;-69
2024/02/06 08:06:12;;;;;;;12.90;5.45;;;5.90;1.00;;;;;;7365642;19;20018;-69
2024/02/06 08:08:45;;;;;;;8.27;4.80;;;6.00;1.00;;;;;;7366967;19;20037;-69
2024/02/06 08:11:15;;;;;;;9.90;5.07;;;5.90;1.00;;;;;;7367534;19;20020;-69
2024/02/06 08:13:46;;;;;;;9.60;5.40;;;5.90;1.00;;;;;;7367272;19;20013;-70
2024/02/06 08:16:17;;;;;;;8.30;5.00;;;6.00;1.00;;;;;;7367429;19;20020;-70
2024/02/06 08:18:48;;;;;;;9.18;4.47;;;6.10;1.00;;;;;;7366277;19;20023;-69
2024/02/06 08:21:18;;;;;;;10.02;5.38;;;6.00;1.00;;;;;;7365914;19;20471;-68
2024/02/06 08:23:51;;;;;;;10.00;5.72;;;6.10;1.00;;;;;;7364575;19;20021;-69
2024/02/06 08:26:21;;;;;;;17.80;10.13;;;6.10;1.00;;;;;;7367873;19;20018;-69
2024/02/06 08:28:51;;;;;;;8.68;5.60;;;6.20;1.00;;;;;;7366642;19;20407;-69
2024/02/06 08:31:22;;;;;;;12.45;5.55;;;6.30;1.00;;;;;;7363332;19;20018;-71
2024/02/06 08:33:53;;;;;;;9.88;5.47;;;6.30;1.00;;;;;;7364549;19;20020;-69
2024/02/06 08:36:23;;;;;;;11.15;5.50;;;6.30;1.00;;;;;;7365254;19;20036;-70
2024/02/06 08:38:55;;;;;;;11.23;5.28;;;6.30;1.00;;;;;;7365951;19;20010;-69
2024/02/06 08:41:28;;;;;;;9.75;4.93;;;6.40;1.00;;;;;;7362577;19;20091;-70
2024/02/06 08:44:00;;;;;;;10.17;5.27;;;6.50;1.00;;;;;;7364236;19;20032;-70
2024/02/06 08:46:30;;;;;;;7.88;4.78;;;6.50;1.00;;;;;;7366069;19;20336;-70
2024/02/06 08:49:03;;;;;;;9.35;4.55;;;6.50;1.00;;;;;;7368240;19;20016;-70
2024/02/06 08:51:33;;;;;;;9.85;4.50;;;6.50;1.00;;;;;;7365604;19;20052;-69
2024/02/06 08:54:06;;;;;;;13.05;4.80;;;6.60;1.00;;;;;;7367109;19;20010;-69
2024/02/06 08:56:36;;;;;;;11.95;5.68;;;6.60;1.00;;;;;;7360540;19;20130;-69
2024/02/06 08:59:06;;;;;;;9.60;4.72;;;6.70;1.00;;;;;;7365388;19;20047;-69
2024/02/06 09:01:38;;;;;;;8.57;4.47;;;6.70;1.00;;;;;;7361623;19;20488;-69
2024/02/06 09:04:09;;;;;;;9.57;4.32;;;6.70;1.00;;;;;;7364811;19;20010;-70
2024/02/06 09:06:39;;;;;;;7.20;3.78;;;6.70;1.00;;;;;;7365279;19;20015;-69
2024/02/06 09:09:12;;;;;;;10.68;4.15;;;6.80;1.00;;;;;;7369026;19;20010;-70
2024/02/06 09:11:43;;;;;;;6.28;4.07;;;6.90;1.00;;;;;;7370263;19;20138;-69
2024/02/06 09:14:14;;;;;;;7.55;3.72;;;7.00;1.00;;;;;;7371846;19;20035;-69
2024/02/06 09:16:44;;;;;;;7.47;4.10;;;7.10;1.00;;;;;;7372405;19;20022;-70
2024/02/06 09:19:14;;;;;;;8.10;3.55;;;7.20;1.00;;;;;;7372744;19;20022;-70
2024/02/06 09:21:44;;;;;;;11.90;3.90;;;7.20;1.00;;;;;;7370216;19;20363;-69
2024/02/06 09:24:17;;;;;;;6.40;3.10;;;7.30;1.00;;;;;;7372221;19;20014;-71
2024/02/06 09:26:48;;;;;;;9.25;3.60;;;7.30;1.00;;;;;;7372073;19;20086;-70
2024/02/06 09:29:18;;;;;;;6.82;3.80;;;7.40;1.00;;;;;;7372305;19;20010;-69
2024/02/06 09:31:49;;;;;;;7.10;3.78;;;7.50;1.00;;;;;;7369605;19;20021;-69
2024/02/06 09:34:20;;;;;;;10.15;3.88;;;7.40;1.00;;;;;;7371071;19;20018;-69
2024/02/06 09:36:50;;;;;;;6.00;3.20;;;7.40;1.00;;;;;;7370592;19;20015;-70
2024/02/06 09:39:23;;;;;;;6.80;3.75;;;7.50;1.00;;;;;;7370730;19;20044;-69
2024/02/06 09:41:58;;;;;;;5.43;3.40;;;7.50;1.00;;;;;;7369158;19;20487;-70
2024/02/06 09:44:29;;;;;;;6.65;3.33;;;7.60;1.00;;;;;;7370213;19;20016;-69
2024/02/06 09:47:01;;;;;;;4.72;3.30;;;7.60;1.00;;;;;;7369058;19;20585;-70
2024/02/06 09:49:33;;;;;;;;;;;7.70;1.00;;;;;;7372662;19;20015;-69
2024/02/06 09:52:04;;;;;;;9.57;3.38;;;7.80;1.00;;;;;;7368230;19;19925;-70
2024/02/06 09:54:42;;;;;;;7.97;3.97;;;7.80;1.00;;;;;;7369326;19;20014;-70
2024/02/06 09:57:17;;;;;;;5.47;2.55;;;7.80;1.00;;;;;;7371881;19;20014;-71
2024/02/06 09:59:47;;;;;;;;;;;7.80;1.00;;;;;;7372818;19;20011;-71
2024/02/06 10:02:18;;;;;;;5.35;2.40;;;7.90;1.00;;;;;;7369618;19;19910;-70
2024/02/06 10:04:50;;;;;;;4.20;2.50;;;8.00;1.00;;;;;;7369901;19;20017;-69
2024/02/06 10:07:21;;;;;;;4.20;2.47;;;8.00;1.00;;;;;;7372294;19;20051;-70
2024/02/06 10:09:56;;;;;;;7.90;3.00;;;8.00;1.00;;;;;;7369989;19;20017;-69
2024/02/06 10:12:29;;;;;;;13.68;3.25;;;8.20;1.00;;;;;;7368088;19;20140;-69
2024/02/06 10:14:59;;;;;;;6.90;2.88;;;8.30;1.00;;;;;;7369216;19;20015;-70
2024/02/06 10:17:29;;;;;;;5.45;2.50;;;8.30;1.00;;;;;;7369649;19;20018;-68
2024/02/06 10:20:07;;;;;;;6.68;2.35;;;8.40;1.00;;;;;;7369442;19;20013;-71
2024/02/06 10:22:39;;;;;;;3.65;2.17;;;8.40;1.00;;;;;;7368201;19;20022;-68
2024/02/06 10:25:13;;;;;;;3.40;2.13;;;8.50;1.00;;;;;;7369172;19;20010;-68
2024/02/06 10:27:44;;;;;;;6.40;2.25;;;8.50;1.00;;;;;;7370073;19;20007;-69
2024/02/06 10:30:14;;;;;;;4.32;2.28;;;8.60;1.00;;;;;;7369782;19;20010;-71
2024/02/06 10:32:44;;;;;;;5.72;2.25;;;8.60;1.00;;;;;;7368015;19;20796;-73
2024/02/06 10:35:15;;;;;;;5.43;1.88;;;8.60;1.00;;;;;;7367506;19;20007;-75
2024/02/06 10:37:46;;;;;;;3.30;2.20;;;8.70;1.00;;;;;;7369677;19;20612;-71
2024/02/06 10:40:23;;;;;;;10.82;4.38;;;8.80;1.00;;;;;;7369750;19;20490;-69
2024/02/06 10:42:54;;;;;;;7.65;2.70;;;8.80;1.00;;;;;;7365375;19;20021;-69
2024/02/06 10:45:44;;;;;;;5.80;2.00;;;8.80;1.00;;;;;;7369452;19;20019;-69
2024/02/06 10:48:18;;;;;;;3.47;2.05;;;8.90;1.00;;;;;;7369269;19;20017;-69
2024/02/06 10:50:58;;;;;;;5.32;1.95;;;9.00;1.00;;;;;;7370051;19;20011;-69
2024/02/06 10:53:30;;;;;;;5.40;2.08;;;9.00;1.00;;;;;;7364600;19;20799;-69
2024/02/06 10:56:08;;;;;;;4.75;1.77;;;9.00;1.00;;;;;;7368872;19;20340;-69
2024/02/06 10:58:40;;;;;;;5.93;1.60;;;9.10;1.00;;;;;;7370224;19;20707;-68
2024/02/06 11:01:14;;;;;;;6.30;2.10;;;9.10;1.00;;;;;;7368068;19;20487;-71
2024/02/06 11:03:54;;;;;;;3.05;1.50;;;9.10;1.00;;;;;;7368576;19;20086;-69
2024/02/06 11:06:30;;;;;;;7.10;2.90;;;9.10;1.00;;;;;;7366688;19;20017;-69
2024/02/06 11:09:05;;;;;;;4.63;1.83;;;9.20;1.00;;;;;;7368768;19;20006;-71
2024/02/06 11:11:39;;;;;;;4.82;1.50;;;9.20;1.00;;;;;;7365793;19;20035;-69
2024/02/06 11:14:12;;;;;;;7.82;1.50;;;9.20;1.00;;;;;;7368223;19;20380;-70
2024/02/06 11:16:49;;;;;;;3.17;1.35;;;9.20;1.00;;;;;;7369096;19;20104;-69
2024/02/06 11:19:29;;;;;;;3.78;1.27;;;9.30;1.00;;;;;;7368387;19;20010;-70
2024/02/06 11:22:05;;;;;;;6.40;1.52;;;9.30;1.00;;;;;;7363164;19;20010;-70
2024/02/06 11:24:36;;;;;;;5.53;1.50;;;9.30;1.00;;;;;;7367968;19;20010;-70
2024/02/06 11:27:10;;;;;;;6.38;1.30;;;9.40;1.00;;;;;;7368727;19;20049;-70
2024/02/06 11:29:41;;;;;;;;;;;9.40;1.00;;;;;;7369432;19;20018;-69
2024/02/06 11:32:11;;;;;;;8.30;1.90;;;9.40;1.00;;;;;;7365016;19;19919;-69
2024/02/06 11:34:52;;;;;;;3.78;1.38;;;9.40;1.00;;;;;;7368116;19;20026;-70
2024/02/06 11:37:26;;;;;;;4.38;1.73;;;9.50;1.00;;;;;;7367455;19;20379;-70
2024/02/06 11:40:10;;;;;;;4.10;1.10;;;9.60;1.00;;;;;;7368299;19;20055;-71
2024/02/06 11:42:43;;;;;;;6.80;1.20;;;9.60;1.00;;;;;;6855349;19;2003913;-70
2024/02/06 11:45:20;;;;;;;3.17;1.40;;;9.70;1.00;;;;;;7369057;19;20035;-70
2024/02/06 11:47:55;;;;;;;3.83;1.10;;;9.70;1.00;;;;;;7368759;19;20011;-69
2024/02/06 11:50:33;;;;;;;4.13;1.50;;;9.70;1.00;;;;;;7367680;19;20054;-68
2024/02/06 11:53:09;;;;;;;4.82;1.60;;;9.70;1.00;;;;;;7361532;19;20045;-70
2024/02/06 11:55:39;;;;;;;4.20;1.30;;;9.70;1.00;;;;;;7367778;19;20056;-69
2024/02/06 11:58:13;;;;;;;4.78;1.48;;;9.70;1.00;;;;;;7365896;19;20019;-69
2024/02/06 12:00:43;;;;;;;16.10;10.13;;;9.70;1.00;;;;;;7367161;19;20078;-69
2024/02/06 12:03:15;;;;;;;3.65;1.38;;;9.80;1.00;;;;;;7366164;19;20018;-70
2024/02/06 12:05:46;;;;;;;5.03;1.30;;;9.70;1.00;;;;;;7367474;19;20471;-70
2024/02/06 12:08:20;;;;;;;4.30;1.48;;;9.80;1.00;;;;;;7366835;19;20007;-70
2024/02/06 12:10:52;;;;;;;3.50;1.85;;;9.80;1.00;;;;;;7364138;19;20114;-69
2024/02/06 12:13:26;;;;;;;4.72;1.55;;;9.90;1.00;;;;;;7363622;19;20494;-69
2024/02/06 12:15:56;;;;;;;6.45;1.63;;;9.90;1.00;;;;;;7366161;19;20390;-70
2024/02/06 12:18:26;;;;;;;9.10;2.20;;;9.90;1.00;;;;;;7367047;19;22804;-70
2024/02/06 12:20:56;;;;;;;4.07;1.73;;;10.10;1.00;;;;;;7363915;19;20469;-70
2024/02/06 12:23:27;;;;;;;4.38;1.50;;;10.20;1.00;;;;;;7356748;19;20576;-69
2024/02/06 12:25:57;;;;;;;6.57;1.92;;;10.10;1.00;;;;;;7363933;19;20011;-70
2024/02/06 12:28:29;;;;;;;8.07;1.70;;;10.10;1.00;;;;;;7364296;19;20496;-70
2024/02/06 12:31:03;;;;;;;5.82;1.85;;;10.20;1.00;;;;;;7366381;19;20038;-69
2024/02/06 12:33:38;;;;;;;6.60;2.20;;;10.20;1.00;;;;;;7364291;19;20258;-71
2024/02/06 12:36:10;;;;;;;9.88;2.10;;;10.40;1.00;;;;;;7366553;19;20014;-71
2024/02/06 12:38:40;;;;;;;6.15;1.73;;;10.50;1.00;;;;;;7368408;19;20015;-70
2024/02/06 12:41:10;;;;;;;7.15;2.13;;;10.60;1.00;;;;;;7363806;19;20011;-70
2024/02/06 12:43:43;;;;;;;10.25;2.00;;;10.70;1.00;;;;;;7364943;19;20010;-70
2024/02/06 12:46:13;;;;;;;13.35;2.83;;;10.70;1.00;;;;;;7366661;19;20017;-69
2024/02/06 12:48:44;;;;;;;6.95;1.80;;;10.70;1.00;;;;;;7374126;19;20007;-70
2024/02/06 12:51:16;;;;;;;8.40;2.67;;;10.80;1.00;;;;;;7372440;19;20078;-69
2024/02/06 12:53:46;;;;;;;11.80;2.67;;;10.80;1.00;;;;;;7370232;19;20003;-70
2024/02/06 12:56:16;;;;;;;7.95;1.88;;;10.80;1.00;;;;;;7371228;19;20014;-70
2024/02/06 12:58:49;;;;;;;12.85;2.25;;;10.90;1.00;;;;;;7372688;19;20357;-70
2024/02/06 13:01:25;;;;;;;9.70;2.30;;;10.90;1.00;;;;;;7369406;19;20015;-71
2024/02/06 13:03:59;;;;;;;18.67;2.53;;;10.90;1.00;;;;;;7369845;19;20047;-69
2024/02/06 13:06:37;;;;;;;13.48;2.65;;;11.00;1.00;;;;;;7371519;19;20028;-69
2024/02/06 13:09:10;;;;;;;8.73;2.58;;;11.10;1.00;;;;;;7372828;19;20029;-69
2024/02/06 13:11:40;;;;;;;7.85;2.10;;;11.10;1.00;;;;;;7370097;19;20081;-69
2024/02/06 13:14:15;;;;;;;7.38;1.67;;;11.10;1.00;;;;;;7370657;19;20010;-70
2024/02/06 13:16:46;;;;;;;10.18;2.47;;;11.10;1.00;;;;;;7373157;19;20031;-70
2024/02/06 13:19:23;;;;;;;9.57;2.20;;;11.10;1.00;;;;;;7372759;19;20007;-72
2024/02/06 13:21:54;;;;;;;7.22;2.00;;;11.10;1.00;;;;;;7367167;19;20776;-70